createdAt,value
2018-04-06T00:00:04.089Z,7.61
2018-04-06T00:02:30.401Z,7.48
2018-04-06T00:04:56.628Z,7.47
2018-04-06T00:07:22.893Z,7.48
2018-04-06T00:09:49.145Z,7.44
2018-04-06T00:12:15.393Z,7.31
2018-04-06T00:14:41.673Z,7.36
2018-04-06T00:17:07.921Z,7.29
2018-04-06T00:19:34.180Z,7.29
2018-04-06T00:22:00.447Z,7.25
2018-04-06T00:24:26.740Z,7.23
2018-04-06T00:26:52.968Z,7.20
2018-04-06T00:29:19.208Z,7.07
2018-04-06T00:31:45.473Z,7.00
2018-04-06T00:34:11.708Z,6.93
2018-04-06T00:36:37.985Z,6.85
2018-04-06T00:39:04.403Z,6.81
2018-04-06T00:41:30.737Z,6.80
2018-04-06T00:43:56.984Z,6.80
2018-04-06T00:46:23.249Z,6.75
2018-04-06T00:48:49.493Z,6.66
2018-04-06T00:51:15.740Z,6.70
2018-04-06T00:53:47.008Z,6.63
2018-04-06T00:56:13.253Z,6.65
2018-04-06T00:58:39.514Z,6.62
2018-04-06T01:01:05.980Z,6.56
2018-04-06T01:03:32.253Z,6.53
2018-04-06T01:05:58.505Z,6.51
2018-04-06T01:08:24.847Z,6.53
2018-04-06T01:10:51.109Z,6.45
2018-04-06T01:13:17.374Z,6.48
2018-04-06T01:15:43.637Z,6.54
2018-04-06T01:18:09.882Z,6.49
2018-04-06T01:20:36.132Z,6.58
2018-04-06T01:23:02.373Z,6.64
2018-04-06T01:25:28.640Z,6.60
2018-04-06T01:27:54.896Z,6.67
2018-04-06T01:30:21.129Z,6.54
2018-04-06T01:32:47.419Z,6.44
2018-04-06T01:35:13.676Z,6.20
2018-04-06T01:37:39.929Z,6.21
2018-04-06T01:40:06.197Z,6.31
2018-04-06T01:42:32.462Z,6.32
2018-04-06T01:44:59.796Z,6.36
2018-04-06T01:47:26.065Z,6.39
2018-04-06T01:49:52.331Z,6.31
2018-04-06T01:52:18.601Z,6.21
2018-04-06T01:54:44.878Z,6.07
2018-04-06T01:57:11.104Z,6.03
2018-04-06T01:59:37.364Z,6.19
2018-04-06T02:02:03.648Z,6.08
2018-04-06T02:04:29.961Z,5.99
2018-04-06T02:06:56.196Z,5.96
2018-04-06T02:09:22.480Z,5.92
2018-04-06T02:11:48.722Z,5.93
2018-04-06T02:14:14.988Z,5.94
2018-04-06T02:16:41.541Z,6.03
2018-04-06T02:19:07.830Z,5.86
2018-04-06T02:21:34.128Z,5.65
2018-04-06T02:24:00.448Z,5.68
2018-04-06T02:26:26.700Z,5.63
2018-04-06T02:28:52.969Z,5.51
2018-04-06T02:31:19.271Z,5.47
2018-04-06T02:33:45.580Z,5.67
2018-04-06T02:36:11.829Z,5.58
2018-04-06T02:38:38.087Z,5.60
2018-04-06T02:41:04.368Z,5.50
2018-04-06T02:43:30.625Z,5.46
2018-04-06T02:45:56.868Z,5.48
2018-04-06T02:48:23.134Z,5.55
2018-04-06T02:50:49.369Z,5.73
2018-04-06T02:53:15.643Z,5.78
2018-04-06T02:55:41.881Z,5.70
2018-04-06T02:58:08.112Z,5.72
2018-04-06T03:00:34.374Z,5.67
2018-04-06T03:03:00.669Z,5.64
2018-04-06T03:05:26.910Z,5.71
2018-04-06T03:07:53.180Z,5.65
2018-04-06T03:10:19.473Z,5.57
2018-04-06T03:12:45.709Z,5.49
2018-04-06T03:15:12.002Z,5.45
2018-04-06T03:17:38.257Z,5.50
2018-04-06T03:20:04.508Z,5.60
2018-04-06T03:22:30.816Z,5.68
2018-04-06T03:24:57.064Z,5.67
2018-04-06T03:27:23.320Z,5.60
2018-04-06T03:29:49.566Z,5.65
2018-04-06T03:32:15.829Z,5.54
2018-04-06T03:34:42.080Z,5.38
2018-04-06T03:37:08.346Z,5.31
2018-04-06T03:39:34.620Z,5.25
2018-04-06T03:42:00.877Z,5.19
2018-04-06T03:44:27.241Z,5.20
2018-04-06T03:46:53.493Z,5.23
2018-04-06T03:49:19.745Z,5.23
2018-04-06T03:51:45.980Z,5.16
2018-04-06T03:54:12.290Z,5.08
2018-04-06T03:56:38.532Z,5.00
2018-04-06T03:59:04.845Z,5.00
2018-04-06T04:01:31.102Z,5.09
2018-04-06T04:03:57.340Z,4.97
2018-04-06T04:06:23.681Z,5.01
2018-04-06T04:08:49.948Z,5.02
2018-04-06T04:11:16.332Z,5.08
2018-04-06T04:13:42.634Z,5.10
2018-04-06T04:16:08.930Z,5.06
2018-04-06T04:18:35.189Z,4.98
2018-04-06T04:21:01.481Z,4.87
2018-04-06T04:23:27.724Z,4.75
2018-04-06T04:25:54.021Z,4.67
2018-04-06T04:28:20.297Z,4.58
2018-04-06T04:30:46.544Z,4.56
2018-04-06T04:33:12.829Z,4.53
2018-04-06T04:35:39.082Z,4.51
2018-04-06T04:38:05.374Z,4.51
2018-04-06T04:40:31.653Z,4.46
2018-04-06T04:42:57.925Z,4.42
2018-04-06T04:45:24.206Z,4.35
2018-04-06T04:47:50.466Z,4.31
2018-04-06T04:50:16.891Z,4.33
2018-04-06T04:52:43.168Z,4.37
2018-04-06T04:55:09.465Z,4.40
2018-04-06T04:57:35.792Z,4.41
2018-04-06T05:00:02.108Z,4.41
2018-04-06T05:02:28.377Z,4.48
2018-04-06T05:04:54.637Z,4.50
2018-04-06T05:07:20.897Z,4.58
2018-04-06T05:09:47.169Z,4.64
2018-04-06T05:12:13.437Z,4.69
2018-04-06T05:14:39.685Z,4.76
2018-04-06T05:17:05.969Z,4.83
2018-04-06T05:19:32.207Z,4.92
2018-04-06T05:21:58.480Z,5.02
2018-04-06T05:24:24.762Z,5.13
2018-04-06T05:26:50.993Z,5.21
2018-04-06T05:29:17.285Z,5.30
2018-04-06T05:31:43.562Z,5.42
2018-04-06T05:34:09.928Z,5.55
2018-04-06T05:36:36.164Z,5.68
2018-04-06T05:39:02.504Z,5.81
2018-04-06T05:41:28.733Z,5.94
2018-04-06T05:43:55.007Z,6.11
2018-04-06T05:46:21.250Z,6.26
2018-04-06T05:48:47.509Z,6.42
2018-04-06T05:51:13.765Z,6.58
2018-04-06T05:53:40.017Z,6.75
2018-04-06T05:56:06.286Z,6.86
2018-04-06T05:58:32.517Z,7.04
2018-04-06T06:00:58.824Z,7.17
2018-04-06T06:03:26.236Z,7.34
2018-04-06T06:05:52.508Z,7.61
2018-04-06T06:08:18.745Z,7.78
2018-04-06T06:10:45.001Z,7.97
2018-04-06T06:13:11.274Z,7.99
2018-04-06T06:15:37.510Z,8.19
2018-04-06T06:18:03.785Z,8.44
2018-04-06T06:20:30.065Z,8.63
2018-04-06T06:22:56.325Z,8.87
2018-04-06T06:25:22.567Z,9.09
2018-04-06T06:27:48.857Z,9.35
2018-04-06T06:30:15.100Z,9.43
2018-04-06T06:32:41.340Z,9.50
2018-04-06T06:35:07.592Z,9.64
2018-04-06T06:37:33.842Z,9.77
2018-04-06T06:40:00.128Z,9.66
2018-04-06T06:44:59.341Z,9.98
2018-04-06T06:47:25.577Z,10.19
2018-04-06T06:49:51.841Z,10.25
2018-04-06T06:52:18.085Z,10.41
2018-04-06T06:54:44.345Z,10.55
2018-04-06T06:57:10.624Z,10.55
2018-04-06T06:59:36.889Z,10.73
2018-04-06T07:02:03.169Z,11.08
2018-04-06T07:04:29.416Z,11.50
2018-04-06T07:06:55.672Z,11.66
2018-04-06T07:09:21.965Z,11.97
2018-04-06T07:11:48.237Z,11.87
2018-04-06T07:14:14.476Z,12.13
2018-04-06T07:16:40.719Z,11.93
2018-04-06T07:19:06.977Z,11.89
2018-04-06T07:21:33.217Z,11.83
2018-04-06T07:23:59.477Z,11.96
2018-04-06T07:26:25.725Z,12.33
2018-04-06T07:28:52.149Z,12.31
2018-04-06T07:31:18.426Z,12.66
2018-04-06T07:33:44.704Z,13.20
2018-04-06T07:36:10.983Z,13.40
2018-04-06T07:38:37.224Z,13.39
2018-04-06T07:41:03.520Z,13.35
2018-04-06T07:43:29.776Z,13.58
2018-04-06T07:45:56.041Z,13.71
2018-04-06T07:48:22.288Z,13.79
2018-04-06T07:50:48.556Z,14.18
2018-04-06T07:53:14.814Z,14.47
2018-04-06T07:55:41.077Z,14.79
2018-04-06T07:58:07.310Z,15.21
2018-04-06T08:00:33.549Z,15.45
2018-04-06T08:02:59.809Z,15.77
2018-04-06T08:05:26.047Z,16.42
2018-04-06T08:07:52.340Z,16.95
2018-04-06T08:10:18.623Z,17.34
2018-04-06T08:12:44.929Z,17.97
2018-04-06T08:15:11.154Z,18.52
2018-04-06T08:17:37.447Z,19.29
2018-04-06T08:20:03.729Z,19.89
2018-04-06T08:22:29.978Z,20.14
2018-04-06T08:24:56.241Z,20.76
2018-04-06T08:27:22.485Z,21.23
2018-04-06T08:29:48.762Z,21.64
2018-04-06T08:32:15.021Z,21.82
2018-04-06T08:34:41.276Z,22.41
2018-04-06T08:37:07.539Z,23.24
2018-04-06T08:39:33.816Z,23.62
2018-04-06T08:42:00.076Z,23.84
2018-04-06T08:44:26.321Z,24.01
2018-04-06T08:46:52.597Z,24.32
2018-04-06T08:49:18.904Z,24.53
2018-04-06T08:51:45.190Z,24.72
2018-04-06T08:54:11.420Z,24.70
2018-04-06T08:56:37.672Z,24.79
2018-04-06T08:59:03.912Z,24.60
2018-04-06T09:01:30.183Z,24.00
2018-04-06T09:03:56.416Z,24.20
2018-04-06T09:06:22.658Z,24.49
2018-04-06T09:08:48.917Z,24.66
2018-04-06T09:11:15.179Z,24.72
2018-04-06T09:13:41.428Z,25.03
2018-04-06T09:16:07.755Z,24.96
2018-04-06T09:18:34.057Z,25.02
2018-04-06T09:21:00.281Z,25.12
2018-04-06T09:23:26.637Z,25.07
2018-04-06T09:25:52.864Z,25.19
2018-04-06T09:28:19.118Z,24.39
2018-04-06T09:30:45.373Z,23.95
2018-04-06T09:33:11.612Z,24.08
2018-04-06T09:35:37.888Z,24.65
2018-04-06T09:38:04.129Z,25.01
2018-04-06T09:40:30.385Z,24.88
2018-04-06T09:42:56.653Z,24.79
2018-04-06T09:45:22.912Z,25.10
2018-04-06T09:47:49.144Z,25.23
2018-04-06T09:50:15.391Z,25.17
2018-04-06T09:52:41.668Z,24.56
2018-04-06T09:55:07.921Z,24.78
2018-04-06T09:57:34.185Z,25.05
2018-04-06T10:00:00.417Z,25.33
2018-04-06T10:02:26.704Z,25.36
2018-04-06T10:04:52.950Z,25.81
2018-04-06T10:07:19.245Z,25.67
2018-04-06T10:09:45.518Z,25.95
2018-04-06T10:12:11.774Z,25.22
2018-04-06T10:14:38.068Z,25.35
2018-04-06T10:17:04.316Z,25.06
2018-04-06T10:19:30.642Z,25.09
2018-04-06T10:21:56.946Z,25.15
2018-04-06T10:24:23.174Z,25.58
2018-04-06T10:26:49.433Z,26.10
2018-04-06T10:29:15.708Z,26.38
2018-04-06T10:31:41.950Z,26.26
2018-04-06T10:34:08.198Z,26.92
2018-04-06T10:36:34.469Z,26.69
2018-04-06T10:39:00.970Z,26.75
2018-04-06T10:41:27.269Z,26.82
2018-04-06T10:43:53.540Z,26.72
2018-04-06T10:46:19.805Z,26.43
2018-04-06T10:48:46.048Z,26.38
2018-04-06T10:51:12.309Z,27.25
2018-04-06T10:53:38.573Z,27.47
2018-04-06T10:56:04.826Z,27.60
2018-04-06T10:58:31.136Z,27.80
2018-04-06T11:00:57.389Z,28.35
2018-04-06T11:03:23.642Z,28.32
2018-04-06T11:05:49.927Z,28.88
2018-04-06T11:08:16.182Z,29.65
2018-04-06T11:13:15.380Z,29.86
2018-04-06T11:15:41.625Z,30.05
2018-04-06T11:18:07.897Z,30.34
2018-04-06T11:20:34.178Z,30.50
2018-04-06T11:23:00.420Z,30.90
2018-04-06T11:25:26.699Z,31.20
2018-04-06T11:27:52.953Z,31.33
2018-04-06T11:30:19.240Z,31.64
2018-04-06T11:32:45.481Z,32.34
2018-04-06T11:35:11.740Z,32.03
2018-04-06T11:37:37.989Z,32.20
2018-04-06T11:40:04.248Z,32.63
2018-04-06T11:42:30.510Z,32.97
2018-04-06T11:44:56.785Z,32.67
2018-04-06T11:47:23.044Z,32.46
2018-04-06T11:49:49.317Z,32.75
2018-04-06T11:52:15.581Z,33.05
2018-04-06T11:54:41.816Z,33.28
2018-04-06T11:57:08.057Z,34.10
2018-04-06T11:59:34.313Z,33.99
2018-04-06T12:02:00.585Z,34.07
2018-04-06T12:04:26.885Z,34.03
2018-04-06T12:06:53.136Z,34.78
2018-04-06T12:09:19.401Z,35.00
2018-04-06T12:11:45.674Z,34.96
2018-04-06T12:14:11.937Z,35.48
2018-04-06T12:16:38.198Z,35.48
2018-04-06T12:19:04.445Z,35.17
2018-04-06T12:21:30.705Z,35.44
2018-04-06T12:23:56.969Z,35.80
2018-04-06T12:26:23.219Z,35.50
2018-04-06T12:28:49.457Z,35.63
2018-04-06T12:31:15.736Z,36.12
2018-04-06T12:33:41.979Z,36.41
2018-04-06T12:36:08.269Z,36.38
2018-04-06T12:38:34.570Z,36.10
2018-04-06T12:41:00.769Z,35.46
2018-04-06T12:43:27.024Z,35.86
2018-04-06T12:45:53.256Z,35.96
2018-04-06T12:48:19.532Z,36.04
2018-04-06T12:50:45.773Z,36.29
2018-04-06T12:53:12.037Z,36.65
2018-04-06T12:55:38.278Z,36.76
2018-04-06T12:58:04.560Z,36.77
2018-04-06T13:00:30.833Z,37.01
2018-04-06T13:02:57.113Z,37.22
2018-04-06T13:05:23.344Z,37.17
2018-04-06T13:07:49.573Z,36.45
2018-04-06T13:10:15.864Z,36.22
2018-04-06T13:12:42.104Z,36.50
2018-04-06T13:15:08.362Z,36.42
2018-04-06T13:17:34.669Z,37.00
2018-04-06T13:20:00.916Z,36.72
2018-04-06T13:22:27.151Z,36.50
2018-04-06T13:24:53.376Z,36.73
2018-04-06T13:27:19.624Z,36.77
2018-04-06T13:29:45.896Z,37.11
2018-04-06T13:32:12.175Z,37.08
2018-04-06T13:34:38.417Z,36.79
2018-04-06T13:37:04.680Z,36.88
2018-04-06T13:39:30.932Z,37.29
2018-04-06T13:41:57.197Z,37.01
2018-04-06T13:44:23.476Z,36.92
2018-04-06T13:46:49.800Z,36.96
2018-04-06T13:49:16.383Z,37.05
2018-04-06T13:51:42.726Z,36.98
2018-04-06T13:54:09.029Z,36.74
2018-04-06T13:56:35.261Z,36.50
2018-04-06T13:59:01.561Z,36.80
2018-04-06T14:01:27.808Z,37.06
2018-04-06T14:03:54.164Z,36.48
2018-04-06T14:06:20.432Z,36.57
2018-04-06T14:08:46.706Z,36.85
2018-04-06T14:11:12.978Z,36.87
2018-04-06T14:13:39.277Z,36.80
2018-04-06T14:16:05.689Z,37.08
2018-04-06T14:18:31.948Z,36.98
2018-04-06T14:20:58.427Z,36.58
2018-04-06T14:23:24.719Z,36.04
2018-04-06T14:25:58.072Z,36.10
2018-04-06T14:28:24.309Z,36.54
2018-04-06T14:30:50.913Z,36.49
2018-04-06T14:33:17.571Z,36.48
2018-04-06T14:35:44.119Z,35.81
2018-04-06T14:38:10.536Z,35.86
2018-04-06T14:40:37.070Z,35.36
2018-04-06T14:43:03.392Z,35.22
2018-04-06T14:45:29.848Z,34.89
2018-04-06T14:47:56.291Z,34.92
2018-04-06T14:50:22.546Z,34.62
2018-04-06T14:52:48.869Z,34.26
2018-04-06T14:55:15.528Z,34.44
2018-04-06T14:57:42.000Z,34.45
2018-04-06T15:00:08.300Z,33.91
2018-04-06T15:02:34.805Z,33.97
2018-04-06T15:05:01.224Z,33.33
2018-04-06T15:07:34.748Z,33.36
2018-04-06T15:10:01.024Z,32.74
2018-04-06T15:12:27.316Z,32.92
2018-04-06T15:14:53.837Z,32.70
2018-04-06T15:17:20.467Z,32.18
2018-04-06T15:19:47.008Z,32.28
2018-04-06T15:22:13.407Z,31.91
2018-04-06T15:24:39.680Z,31.69
2018-04-06T15:27:07.044Z,31.50
2018-04-06T15:29:35.078Z,31.24
2018-04-06T15:32:02.232Z,30.79
2018-04-06T15:34:28.949Z,30.38
2018-04-06T15:36:55.983Z,30.13
2018-04-06T15:39:23.181Z,29.78
2018-04-06T15:41:50.038Z,29.36
2018-04-06T15:44:16.970Z,29.00
2018-04-06T15:46:44.221Z,28.94
2018-04-06T15:49:11.422Z,28.21
2018-04-06T15:51:41.280Z,27.67
2018-04-06T15:54:08.332Z,26.61
2018-04-06T15:56:35.846Z,25.80
2018-04-06T15:59:02.561Z,25.46
2018-04-06T16:01:29.339Z,24.77
2018-04-06T16:03:55.623Z,24.29
2018-04-06T16:06:22.242Z,23.87
2018-04-06T16:08:48.731Z,22.97
2018-04-06T16:11:15.515Z,22.33
2018-04-06T16:13:42.217Z,21.57
2018-04-06T16:16:08.644Z,21.22
2018-04-06T16:18:34.900Z,20.71
2018-04-06T16:21:01.482Z,20.17
2018-04-06T16:23:28.124Z,19.73
2018-04-06T16:25:54.381Z,19.25
2018-04-06T16:28:20.724Z,18.89
2018-04-06T16:30:47.313Z,18.47
2018-04-06T16:33:14.524Z,18.31
2018-04-06T16:35:41.043Z,18.03
2018-04-06T16:38:07.435Z,17.70
2018-04-06T16:40:33.685Z,17.47
2018-04-06T16:42:59.932Z,17.29
2018-04-06T16:45:26.233Z,17.16
2018-04-06T16:47:52.480Z,16.97
2018-04-06T16:50:19.748Z,16.79
2018-04-06T16:52:45.981Z,16.60
2018-04-06T16:55:13.397Z,16.64
2018-04-06T16:57:39.641Z,16.58
2018-04-06T17:00:05.989Z,16.41
2018-04-06T17:02:32.329Z,16.49
2018-04-06T17:04:59.461Z,16.19
2018-04-06T17:07:25.750Z,16.19
2018-04-06T17:09:52.011Z,16.02
2018-04-06T17:12:18.296Z,15.98
2018-04-06T17:14:44.582Z,15.98
2018-04-06T17:17:10.870Z,15.84
2018-04-06T17:19:37.252Z,15.84
2018-04-06T17:22:03.508Z,15.79
2018-04-06T17:24:29.759Z,15.75
2018-04-06T17:26:56.009Z,15.64
2018-04-06T17:29:22.289Z,15.55
2018-04-06T17:31:48.520Z,15.45
2018-04-06T17:34:14.833Z,15.24
2018-04-06T17:36:41.068Z,15.16
2018-04-06T17:39:07.400Z,15.09
2018-04-06T17:41:33.673Z,15.05
2018-04-06T17:43:59.936Z,15.00
2018-04-06T17:46:26.191Z,14.90
2018-04-06T17:48:52.437Z,14.74
2018-04-06T17:51:18.688Z,14.67
2018-04-06T17:53:44.928Z,14.49
2018-04-06T17:56:11.175Z,14.38
2018-04-06T17:58:37.562Z,14.26
2018-04-06T18:01:03.841Z,14.13
2018-04-06T18:03:30.184Z,14.03
2018-04-06T18:05:56.508Z,14.01
2018-04-06T18:08:22.789Z,13.93
2018-04-06T18:10:49.033Z,13.89
2018-04-06T18:13:15.329Z,13.89
2018-04-06T18:15:41.649Z,13.80
2018-04-06T18:18:07.912Z,13.71
2018-04-06T18:20:34.161Z,13.67
2018-04-06T18:23:00.473Z,13.64
2018-04-06T18:25:26.722Z,13.56
2018-04-06T18:27:53.011Z,13.46
2018-04-06T18:30:19.276Z,13.39
2018-04-06T18:32:45.558Z,13.37
2018-04-06T18:35:11.821Z,13.32
2018-04-06T18:37:38.120Z,13.22
2018-04-06T18:40:04.428Z,13.13
2018-04-06T18:42:30.690Z,13.13
2018-04-06T18:44:57.048Z,13.13
2018-04-06T18:47:23.340Z,13.09
2018-04-06T18:49:49.590Z,13.12
2018-04-06T18:52:15.866Z,13.11
2018-04-06T18:54:42.530Z,13.07
2018-04-06T18:57:08.877Z,13.08
2018-04-06T18:59:35.310Z,13.12
2018-04-06T19:02:01.927Z,13.13
2018-04-06T19:04:28.499Z,13.16
2018-04-06T19:06:54.864Z,13.21
2018-04-06T19:09:21.341Z,13.21
2018-04-06T19:11:47.626Z,13.16
2018-04-06T19:14:13.909Z,13.16
2018-04-06T19:16:40.157Z,13.14
2018-04-06T19:19:06.853Z,13.04
2018-04-06T19:21:33.461Z,12.98
2018-04-06T19:23:59.905Z,12.93
2018-04-06T19:26:26.242Z,12.87
2018-04-06T19:28:52.562Z,12.80
2018-04-06T19:31:19.187Z,12.73
2018-04-06T19:33:45.507Z,12.70
2018-04-06T19:36:11.814Z,12.65
2018-04-06T19:38:38.344Z,12.60
2018-04-06T19:41:04.601Z,12.57
2018-04-06T19:43:30.903Z,12.52
2018-04-06T19:45:57.180Z,12.44
2018-04-06T19:48:23.712Z,12.44
2018-04-06T19:50:50.117Z,12.41
2018-04-06T19:53:16.550Z,12.35
2018-04-06T19:55:42.897Z,12.33
2018-04-06T19:58:09.145Z,12.33
2018-04-06T20:00:35.757Z,12.29
2018-04-06T20:03:02.398Z,12.30
2018-04-06T20:05:28.761Z,12.24
2018-04-06T20:07:55.352Z,12.18
2018-04-06T20:10:21.810Z,12.20
2018-04-06T20:12:48.095Z,12.20
2018-04-06T20:15:14.589Z,12.07
2018-04-06T20:17:40.876Z,12.00
2018-04-06T20:20:07.120Z,12.05
2018-04-06T20:22:33.648Z,12.04
2018-04-06T20:25:00.058Z,12.05
2018-04-06T20:27:26.534Z,11.98
2018-04-06T20:29:52.984Z,11.90
2018-04-06T20:32:19.249Z,11.84
2018-04-06T20:34:45.665Z,11.76
2018-04-06T20:37:12.029Z,11.67
2018-04-06T20:39:38.378Z,11.62
2018-04-06T20:42:04.701Z,11.65
2018-04-06T20:44:30.947Z,11.57
2018-04-06T20:46:57.330Z,11.49
2018-04-06T20:49:23.669Z,11.40
2018-04-06T20:51:50.041Z,11.37
2018-04-06T20:54:16.382Z,11.39
2018-04-06T20:56:42.697Z,11.36
2018-04-06T20:59:09.051Z,11.31
2018-04-06T21:01:35.345Z,11.24
2018-04-06T21:04:01.781Z,11.18
2018-04-06T21:06:28.025Z,11.23
2018-04-06T21:08:54.328Z,11.21
2018-04-06T21:11:20.580Z,11.22
2018-04-06T21:13:47.093Z,11.10
2018-04-06T21:16:13.356Z,11.05
2018-04-06T21:18:39.748Z,10.99
2018-04-06T21:21:06.013Z,11.01
2018-04-06T21:23:32.293Z,10.98
2018-04-06T21:25:58.521Z,10.93
2018-04-06T21:28:25.049Z,10.94
2018-04-06T21:30:51.317Z,10.90
2018-04-06T21:33:17.629Z,10.84
2018-04-06T21:35:43.996Z,10.77
2018-04-06T21:38:10.408Z,10.75
2018-04-06T21:40:36.800Z,10.73
2018-04-06T21:43:03.226Z,10.66
2018-04-06T21:45:29.670Z,10.63
2018-04-06T21:47:55.985Z,10.59
2018-04-06T21:50:22.544Z,10.59
2018-04-06T21:52:48.882Z,10.52
2018-04-06T21:55:15.178Z,10.56
2018-04-06T21:57:41.542Z,10.49
2018-04-06T22:00:07.905Z,10.36
2018-04-06T22:02:35.508Z,10.26
2018-04-06T22:05:01.754Z,10.29
2018-04-06T22:07:28.032Z,10.26
2018-04-06T22:09:54.325Z,10.18
2018-04-06T22:12:20.566Z,10.13
2018-04-06T22:14:46.858Z,10.07
2018-04-06T22:17:13.112Z,10.03
2018-04-06T22:19:39.392Z,10.01
2018-04-06T22:22:05.627Z,9.96
2018-04-06T22:24:31.884Z,9.89
2018-04-06T22:26:58.107Z,9.93
2018-04-06T22:29:24.369Z,9.92
2018-04-06T22:31:50.614Z,9.92
2018-04-06T22:34:16.945Z,9.94
2018-04-06T22:36:43.198Z,9.89
2018-04-06T22:39:09.433Z,9.84
2018-04-06T22:41:35.712Z,9.82
2018-04-06T22:44:01.961Z,9.80
2018-04-06T22:46:28.440Z,9.79
2018-04-06T22:48:54.664Z,9.76
2018-04-06T22:51:20.945Z,9.75
2018-04-06T22:53:47.194Z,9.63
2018-04-06T22:56:13.521Z,9.52
2018-04-06T22:58:39.825Z,9.36
2018-04-06T23:01:06.065Z,9.42
2018-04-06T23:03:32.308Z,9.38
2018-04-06T23:05:58.596Z,9.33
2018-04-06T23:08:24.852Z,9.30
2018-04-06T23:10:51.084Z,9.29
2018-04-06T23:13:17.346Z,9.24
2018-04-06T23:15:43.576Z,9.19
2018-04-06T23:18:10.044Z,9.11
2018-04-06T23:20:36.302Z,9.06
2018-04-06T23:23:02.587Z,8.99
2018-04-06T23:25:28.837Z,8.92
2018-04-06T23:27:55.066Z,8.86
2018-04-06T23:30:21.312Z,8.83
2018-04-06T23:32:47.569Z,8.73
2018-04-06T23:35:13.845Z,8.79
2018-04-06T23:37:40.094Z,8.73
2018-04-06T23:40:06.326Z,8.73
2018-04-06T23:42:32.594Z,8.67
2018-04-06T23:44:58.823Z,8.62
2018-04-06T23:47:25.081Z,8.62
2018-04-06T23:49:51.317Z,8.57
2018-04-06T23:52:17.811Z,8.56
2018-04-06T23:54:44.049Z,8.64
2018-04-06T23:57:10.297Z,8.53
2018-04-06T23:59:36.524Z,8.57
